Mo Valley, Iowa
Current Conditions -  °F | °C
As of 9:15 PM on Thursday 27 Nov 2014 (Local Time) from KBTA Reporting Station
Clear Clear  
Wind Chill: 14°   Ceiling: Unl
Heat Index: 25°   Visibility: 10mi
Dew Point: 16°   Wind: 12mph
Humidity: 69%   Direction: 150°SSE
Pressure: 30.16"   Gusts: 24mph
Location:  41.5746°N, 95.9326°W
Report Text: KBTA 280315Z AUTO 15010G21KT 10SM CLR M04/M09 A3016 RMK AO2 T10411090
Loading
Personal Weather Stations






























Interactive Weather Map New forecast layout! Learn more

10-Day Weather Forecast

Advertisements
Track Severe Weather on mobile